地図

経路データ

SID SEASON NUMBER BASIN SUBBASIN NAME ISO_TIME NATURE LAT LON WMO_WIND WMO_PRES WMO_AGENCY TRACK_TYPE DIST2LAND LANDFALL IFLAG USA_AGENCY USA_ATCF_ID USA_LAT USA_LON USA_RECORD USA_STATUS USA_WIND USA_PRES USA_SSHS USA_R34_NE USA_R34_SE USA_R34_SW USA_R34_NW USA_R50_NE USA_R50_SE USA_R50_SW USA_R50_NW USA_R64_NE USA_R64_SE USA_R64_SW USA_R64_NW USA_POCI USA_ROCI USA_RMW USA_EYE TOKYO_LAT TOKYO_LON TOKYO_GRADE TOKYO_WIND TOKYO_PRES TOKYO_R50_DIR TOKYO_R50_LONG TOKYO_R50_SHORT TOKYO_R30_DIR TOKYO_R30_LONG TOKYO_R30_SHORT TOKYO_LAND CMA_LAT CMA_LON CMA_CAT CMA_WIND CMA_PRES HKO_LAT HKO_LON HKO_CAT HKO_WIND HKO_PRES NEWDELHI_LAT NEWDELHI_LON NEWDELHI_GRADE NEWDELHI_WIND NEWDELHI_PRES NEWDELHI_CI NEWDELHI_DP NEWDELHI_POCI REUNION_LAT REUNION_LON REUNION_TYPE REUNION_WIND REUNION_PRES REUNION_TNUM REUNION_CI REUNION_RMW REUNION_R34_NE REUNION_R34_SE REUNION_R34_SW REUNION_R34_NW REUNION_R50_NE REUNION_R50_SE REUNION_R50_SW REUNION_R50_NW REUNION_R64_NE REUNION_R64_SE REUNION_R64_SW REUNION_R64_NW BOM_LAT BOM_LON BOM_TYPE BOM_WIND BOM_PRES BOM_TNUM BOM_CI BOM_RMW BOM_R34_NE BOM_R34_SE BOM_R34_SW BOM_R34_NW BOM_R50_NE BOM_R50_SE BOM_R50_SW BOM_R50_NW BOM_R64_NE BOM_R64_SE BOM_R64_SW BOM_R64_NW BOM_ROCI BOM_POCI BOM_EYE BOM_POS_METHOD BOM_PRES_METHOD NADI_LAT NADI_LON NADI_CAT NADI_WIND NADI_PRES WELLINGTON_LAT WELLINGTON_LON WELLINGTON_WIND WELLINGTON_PRES DS824_LAT DS824_LON DS824_STAGE DS824_WIND DS824_PRES TD9636_LAT TD9636_LON TD9636_STAGE TD9636_WIND TD9636_PRES TD9635_LAT TD9635_LON TD9635_WIND TD9635_PRES TD9635_ROCI NEUMANN_LAT NEUMANN_LON NEUMANN_CLASS NEUMANN_WIND NEUMANN_PRES MLC_LAT MLC_LON MLC_CLASS MLC_WIND MLC_PRES USA_GUST BOM_GUST BOM_GUST_PER REUNION_GUST REUNION_GUST_PER USA_SEAHGT USA_SEARAD_NE USA_SEARAD_SE USA_SEARAD_SW USA_SEARAD_NW STORM_SPEED STORM_DIR
1884215N21088 1884 24 NI BB NOT_NAMED 1884-08-02 00:00:00 TS 21.2000 88.0000 main 49 39 _________O____ -1 21.2000 88.0000 TC 30 2 329
1884215N21088 1884 24 NI BB NOT_NAMED 1884-08-02 03:00:00 TS 21.3017 87.9384 main 45 33 _________PO___ -1 21.3525 87.9075 TC 30 21.2000 88.0000 1 3 328
1884215N21088 1884 24 NI BB NOT_NAMED 1884-08-02 06:00:00 TS 21.4362 87.8393 main 33 11 _________OP___ -1 21.5000 87.8000 TC 30 21.3406 87.8984 1 3 323
1884215N21088 1884 24 NI BB NOT_NAMED 1884-08-02 09:00:00 TS 21.5749 87.7174 main 11 0 _________PP___ -1 21.6425 87.6649 TC 30 21.4849 87.7873 1 4 319
1884215N21088 1884 24 NI BB NOT_NAMED 1884-08-02 12:00:00 TS 21.7184 87.5788 main 0 0 _________OP___ -1 21.8000 87.5000 TC 30 21.6368 87.6576 1 4 318
1884215N21088 1884 24 NI BB NOT_NAMED 1884-08-02 15:00:00 TS 21.9038 87.4000 main 0 0 _________PO___ -1 22.0075 87.3001 TC 30 21.8000 87.5000 1 5 317
1884215N21088 1884 24 NI BB NOT_NAMED 1884-08-02 18:00:00 TS 22.0873 87.2056 main 0 0 _________OP___ -1 22.2000 87.1000 TC 30 21.9745 87.3112 1 5 313
1884215N21088 1884 24 NI BB NOT_NAMED 1884-08-02 21:00:00 TS 22.2376 87.0164 main 0 0 _________PP___ -1 22.3300 86.9200 TC 30 22.1452 87.1129 1 4 310
1884215N21088 1884 24 NI BB NOT_NAMED 1884-08-03 00:00:00 TS 22.3466 86.8665 main 0 0 _________OP___ -1 22.4000 86.8000 TC 30 22.2933 86.9331 1 3 309
1884215N21088 1884 24 NI BB NOT_NAMED 1884-08-03 03:00:00 TS 22.4075 86.7887 main 0 0 _________PO___ -1 22.4150 86.7775 TC 30 22.4000 86.8000 1 1 309
1884215N21088 1884 24 NI BB NOT_NAMED 1884-08-03 06:00:00 TS 22.4215 86.7747 main 0 0 _________OP___ -1 22.4000 86.8000 TC 30 22.4430 86.7495 1 0 0
1884215N21088 1884 24 NI BB NOT_NAMED 1884-08-03 09:00:00 TS 22.4224 86.7736 main 0 0 _________PP___ -1 22.4000 86.8000 TC 30 22.4449 86.7473 1 0 0
1884215N21088 1884 24 NI BB NOT_NAMED 1884-08-03 12:00:00 TS 22.4122 86.7857 main 0 0 _________OP___ -1 22.4000 86.8000 TC 30 22.4243 86.7714 1 0 0
1884215N21088 1884 24 NI BB NOT_NAMED 1884-08-03 15:00:00 TS 22.4000 86.8000 main 0 0 _________PO___ -1 22.4000 86.8000 TC 30 22.4000 86.8000 1 1 119
1884215N21088 1884 24 NI BB NOT_NAMED 1884-08-03 18:00:00 TS 22.3794 86.8443 main 0 0 _________OP___ -1 22.4000 86.8000 TC 30 22.3588 86.8887 1 1 117
1884215N21088 1884 24 NI BB NOT_NAMED 1884-08-03 21:00:00 TS 22.3468 86.9117 main 0 0 _________PP___ -1 22.3698 86.8598 TC 30 22.3238 86.9637 1 0 114
1884215N21088 1884 24 NI BB NOT_NAMED 1884-08-04 00:00:00 TS 22.3635 86.8784 main 0 0 _________OP___ -1 22.4000 86.8000 TC 30 22.3270 86.9568 1 3 298
1884215N21088 1884 24 NI BB NOT_NAMED 1884-08-04 03:00:00 TS 22.4774 86.6524 main 0 0 _________PO___ -1 22.5548 86.5048 TC 30 22.4000 86.8000 1 7 298
1884215N21088 1884 24 NI BB NOT_NAMED 1884-08-04 06:00:00 TS 22.6917 86.2006 main 0 0 _________OP___ -1 22.8000 86.0000 TC 30 22.5834 86.4012 1 11 296
1884215N21088 1884 24 NI BB NOT_NAMED 1884-08-04 09:00:00 TS 22.9637 85.5836 main 0 0 _________PP___ -1 23.0931 85.3154 TC 30 22.8343 85.8517 1 13 296
1884215N21088 1884 24 NI BB NOT_NAMED 1884-08-04 12:00:00 TS 23.2589 84.9131 main 0 0 _________OP___ -1 23.4000 84.6000 TC 30 23.1178 85.2261 1 13 296
1884215N21088 1884 24 NI BB NOT_NAMED 1884-08-04 15:00:00 TS 23.5323 84.3348 main 0 0 _________PO___ -1 23.6645 84.0696 TC 30 23.4000 84.6000 1 11 297
1884215N21088 1884 24 NI BB NOT_NAMED 1884-08-04 18:00:00 TS 23.7784 83.8146 main 0 0 _________OP___ -1 23.9000 83.6000 TC 30 23.6568 84.0292 1 11 296
1884215N21088 1884 24 NI BB NOT_NAMED 1884-08-04 21:00:00 TS 24.0166 83.2642 main 0 0 _________PP___ -1 24.1302 83.0476 TC 30 23.9030 83.4807 1 10 295
1884215N21088 1884 24 NI BB NOT_NAMED 1884-08-05 00:00:00 TS 24.2113 82.7959 main 0 0 _________OP___ -1 24.3000 82.6000 TC 30 24.1226 82.9918 1 8 294
1884215N21088 1884 24 NI BB NOT_NAMED 1884-08-05 03:00:00 TS 24.3323 82.4986 main 0 0 _________PO___ -1 24.3647 82.3972 TC 30 24.3000 82.6000 1 5 294
1884215N21088 1884 24 NI BB NOT_NAMED 1884-08-05 06:00:00 TS 24.4065 82.3201 main 0 0 _________OP___ -1 24.4000 82.3000 TC 30 24.4131 82.3402 1 3 297
1884215N21088 1884 24 NI BB NOT_NAMED 1884-08-05 09:00:00 TS 24.4894 82.1607 main 0 0 _________PP___ -1 24.4925 82.1425 TC 30 24.4863 82.1788 1 3 303
1884215N21088 1884 24 NI BB NOT_NAMED 1884-08-05 12:00:00 TS 24.5708 82.0390 main 0 0 _________OP___ -1 24.6000 82.0000 TC 30 24.5415 82.0780 1 3 310
1884215N21088 1884 24 NI BB NOT_NAMED 1884-08-05 15:00:00 TS 24.6500 81.9462 main 0 0 _________PO___ -1 24.7000 81.8925 TC 30 24.6000 82.0000 1 3 315
1884215N21088 1884 24 NI BB NOT_NAMED 1884-08-05 18:00:00 TS 24.7504 81.8428 main 0 0 _________OP___ -1 24.8000 81.8000 TC 30 24.7009 81.8856 1 3 319
1884215N21088 1884 24 NI BB NOT_NAMED 1884-08-05 21:00:00 TS 24.8574 81.7425 main 0 0 _________PP___ -1 24.9075 81.7000 TC 30 24.8074 81.7850 1 3 319
1884215N21088 1884 24 NI BB NOT_NAMED 1884-08-06 00:00:00 TS 24.9551 81.6459 main 0 0 _________OP___ -1 25.0000 81.6000 TC 30 24.9102 81.6919 1 2 315
1884215N21088 1884 24 NI BB NOT_NAMED 1884-08-06 03:00:00 TS 25.0287 81.5500 main 0 0 _________PO___ -1 25.0575 81.5000 TC 30 25.0000 81.6000 1 2 307
1884215N21088 1884 24 NI BB NOT_NAMED 1884-08-06 06:00:00 TS 25.0822 81.4540 main 0 0 _________OP___ -1 25.1000 81.4000 TC 30 25.0643 81.5080 1 2 301
1884215N21088 1884 24 NI BB NOT_NAMED 1884-08-06 09:00:00 TS 25.1324 81.3612 main 0 0 _________PP___ -1 25.1500 81.3075 TC 30 25.1149 81.4149 1 2 299
1884215N21088 1884 24 NI BB NOT_NAMED 1884-08-06 12:00:00 TS 25.1790 81.2571 main 0 0 _________OP___ -1 25.2000 81.2000 TC 30 25.1580 81.3143 1 2 294
1884215N21088 1884 24 NI BB NOT_NAMED 1884-08-06 15:00:00 TS 25.2250 81.1287 main 0 0 _________PO___ -1 25.2500 81.0575 TC 30 25.2000 81.2000 1 3 290
1884215N21088 1884 24 NI BB NOT_NAMED 1884-08-06 18:00:00 TS 25.2668 80.9922 main 0 0 _________OP___ -1 25.3000 80.9000 TC 30 25.2336 81.0844 1 3 288
1884215N21088 1884 24 NI BB NOT_NAMED 1884-08-06 21:00:00 TS 25.3023 80.8622 main 0 0 _________PP___ -1 25.3349 80.7724 TC 30 25.2697 80.9520 1 3 289
1884215N21088 1884 24 NI BB NOT_NAMED 1884-08-07 00:00:00 TS 25.3605 80.6968 main 0 0 _________OP___ -1 25.4000 80.6000 TC 30 25.3210 80.7937 1 4 294
1884215N21088 1884 24 NI BB NOT_NAMED 1884-08-07 03:00:00 TS 25.4675 80.4576 main 0 0 _________PO___ -1 25.5351 80.3151 TC 30 25.4000 80.6000 1 5 298
1884215N21088 1884 24 NI BB NOT_NAMED 1884-08-07 06:00:00 TS 25.6087 80.1745 main 0 0 _________OP___ -1 25.7000 80.0000 TC 30 25.5175 80.3490 1 6 300
1884215N21088 1884 24 NI BB NOT_NAMED 1884-08-07 09:00:00 TS 25.7564 79.9001 main 0 0 _________PP___ -1 25.8500 79.7349 TC 30 25.6629 80.0654 1 6 302
1884215N21088 1884 24 NI BB NOT_NAMED 1884-08-07 12:00:00 TS 25.9134 79.6370 main 0 0 _________OP___ -1 26.0000 79.5000 TC 30 25.8268 79.7740 1 6 305
1884215N21088 1884 24 NI BB NOT_NAMED 1884-08-07 15:00:00 TS 26.0712 79.3962 main 0 0 _________PO___ -1 26.1424 79.2924 TC 30 26.0000 79.5000 1 5 308
1884215N21088 1884 24 NI BB NOT_NAMED 1884-08-07 18:00:00 TS 26.2298 79.1790 main 0 0 _________OP___ -1 26.3000 79.1000 TC 30 26.1596 79.2580 1 5 311
1884215N21088 1884 24 NI BB NOT_NAMED 1884-08-07 21:00:00 TS 26.4100 78.9625 main 0 0 _________PP___ -1 26.4925 78.8850 TC 30 26.3274 79.0399 1 5 316
1884215N21088 1884 24 NI BB NOT_NAMED 1884-08-08 00:00:00 TS 26.6033 78.7759 main 0 0 _________OP___ -1 26.7000 78.7000 TC 30 26.5065 78.8518 1 5 323
1884215N21088 1884 24 NI BB NOT_NAMED 1884-08-08 03:00:00 TS 26.7962 78.6387 main 0 0 _________PO___ -1 26.8925 78.5774 TC 30 26.7000 78.7000 1 5 332
1884215N21088 1884 24 NI BB NOT_NAMED 1884-08-08 06:00:00 TS 27.0012 78.5404 main 0 0 _________OP___ -1 27.1000 78.5000 TC 30 26.9023 78.5807 1 5 341
1884215N21088 1884 24 NI BB NOT_NAMED 1884-08-08 09:00:00 TS 27.2312 78.4698 main 0 0 _________PP___ -1 27.3425 78.4424 TC 30 27.1198 78.4972 1 5 348
1884215N21088 1884 24 NI BB NOT_NAMED 1884-08-08 12:00:00 TS 27.4762 78.4201 main 0 0 _________OP___ -1 27.6000 78.4000 TC 30 27.3524 78.4401 1 5 350
1884215N21088 1884 24 NI BB NOT_NAMED 1884-08-08 15:00:00 TS 27.7213 78.3713 main 0 0 _________PO___ -1 27.8425 78.3425 TC 30 27.6000 78.4000 1 5 352
1884215N21088 1884 24 NI BB NOT_NAMED 1884-08-08 18:00:00 TS 27.9640 78.3392 main 0 0 _________OP___ -1 28.1000 78.3000 TC 30 27.8619 78.3686 1 5 356
1884215N21088 1884 24 NI BB NOT_NAMED 1884-08-08 21:00:00 TS 28.2370 78.3216 main 0 0 _________PP___ -1 28.3900 78.2900 TC 30 28.1351 78.3427 1 5 358
1884215N21088 1884 24 NI BB NOT_NAMED 1884-08-09 00:00:00 TS 28.5104 78.3136 main 0 0 _________OP___ -1 28.7000 78.3000 TC 30 28.4157 78.3204 1 5 359
1884215N21088 1884 24 NI BB NOT_NAMED 1884-08-09 03:00:00 NR 28.7000 78.3000 main 0 __________O___ -1 TC 28.7000 78.3000 1 4 357

IBTrACS Databaseについて

本データベースは、米国NOAAが公開する1842年以降の世界の熱帯低気圧のベストトラックデータアーカイブInternational Best Track Archive for Climate Stewardship (IBTrACS)を、ウェブで閲覧しやすい形式に変換したものです。

最終更新日:2021-12-08